Time;durP1;ratioP1;P1;durP2;ratioP2;P2;SDS_P1;SDS_P2;PMS_P1;PMS_P2;Temp;Humidity;BMP_temperature;BMP_pressure;BME280_temperature;BME280_humidity;BME280_pressure;Samples;Min_cycle;Max_cycle;Signal;HPM_P1;HPM_P2
2023/03/31 00:01:34;;;;;;;31.47;8.90;;;;;;;42.20;35.81;101035.78;4995798;28;20436;-88
2023/03/31 00:04:03;;;;;;;30.40;9.10;;;;;;;42.11;35.59;101042.06;4995667;28;20511;-89
2023/03/31 00:06:31;;;;;;;20.40;6.40;;;;;;;42.09;35.73;101029.88;4995354;28;20439;-90
2023/03/31 00:09:00;;;;;;;15.60;6.17;;;;;;;42.07;35.88;101004.88;4995396;28;20428;-89
2023/03/31 00:11:28;;;;;;;32.33;7.80;;;;;;;42.03;35.89;101007.47;4995236;28;20989;-90
2023/03/31 00:13:54;;;;;;;19.77;5.53;;;;;;;42.18;35.65;101021.69;4996104;28;20451;-89
2023/03/31 00:16:21;;;;;;;22.83;7.50;;;;;;;42.05;35.89;101005.22;4995072;28;20464;-88
2023/03/31 00:19:00;;;;;;;22.97;7.60;;;;;;;42.02;35.48;101002.34;5011157;28;20469;-87
2023/03/31 00:21:35;;;;;;;23.60;5.77;;;;;;;42.03;35.65;101034.72;4999832;28;20431;-87
2023/03/31 00:24:04;;;;;;;19.03;6.70;;;;;;;42.22;35.48;101031.56;4995587;28;20440;-87
2023/03/31 00:26:31;;;;;;;18.90;7.00;;;;;;;42.33;35.15;101035.50;4983581;28;20459;-88
2023/03/31 00:28:59;;;;;;;23.53;9.83;;;;;;;42.21;35.42;101038.16;4995387;28;20448;-86
2023/03/31 00:31:28;;;;;;;20.40;5.20;;;;;;;42.06;35.02;101027.81;4999881;28;20432;-85
2023/03/31 00:33:56;;;;;;;16.60;6.73;;;;;;;42.09;35.22;101024.44;4995581;28;20429;-86
2023/03/31 00:36:28;;;;;;;42.23;7.73;;;;;;;42.21;35.59;101042.81;5012680;28;20489;-86
2023/03/31 00:39:07;;;;;;;28.60;9.80;;;;;;;42.24;35.24;101051.13;4995585;28;20420;-87
2023/03/31 00:41:37;;;;;;;20.80;7.53;;;;;;;42.11;35.79;101038.50;4995400;28;20432;-90
2023/03/31 00:44:23;;;;;;;21.53;7.90;;;;;;;42.06;35.80;101041.44;4995201;28;20558;-89
2023/03/31 00:47:01;;;;;;;26.93;11.63;;;;;;;42.18;35.71;101030.66;4995584;28;20949;-86
2023/03/31 00:49:57;;;;;;;20.73;6.97;;;;;;;42.27;35.85;101031.38;4991876;28;20510;-87
2023/03/31 00:52:34;;;;;;;24.00;6.67;;;;;;;42.26;35.16;101023.53;4992519;28;20504;-88
2023/03/31 00:55:11;;;;;;;19.03;7.50;;;;;;;42.27;35.06;101014.22;4992559;28;20433;-88
2023/03/31 00:57:43;;;;;;;24.23;7.33;;;;;;;42.27;35.39;101006.03;5000214;28;20858;-90
2023/03/31 01:00:14;;;;;;;20.60;7.13;;;;;;;42.13;35.01;101001.63;4978822;28;20428;-89
2023/03/31 01:02:54;;;;;;;36.87;9.87;;;;;;;42.21;35.79;101002.72;4995390;28;20483;-89
2023/03/31 01:05:31;;;;;;;19.07;6.80;;;;;;;42.20;35.75;100998.41;5001063;28;20420;-87
2023/03/31 01:07:58;;;;;;;25.90;6.67;;;;;;;42.19;35.41;100980.47;5013243;28;20448;-87
2023/03/31 01:10:25;;;;;;;24.43;6.23;;;;;;;42.10;35.75;100971.50;5002538;28;20514;-88
2023/03/31 01:12:54;;;;;;;17.07;5.90;;;;;;;42.17;35.64;100971.00;5012314;28;20838;-89
2023/03/31 01:15:22;;;;;;;22.80;6.83;;;;;;;42.04;35.98;100961.94;4988085;28;20414;-90
2023/03/31 01:17:49;;;;;;;22.20;7.40;;;;;;;41.88;36.15;100958.22;5005038;28;20425;-90
2023/03/31 01:20:36;;;;;;;16.80;7.93;;;;;;;41.87;36.10;100957.44;5013901;28;20440;-89
2023/03/31 01:23:15;;;;;;;23.50;6.70;;;;;;;41.85;36.25;100963.19;4996060;28;20436;-86
2023/03/31 01:25:53;;;;;;;23.60;7.70;;;;;;;41.96;35.83;100962.81;4994805;28;20440;-87
2023/03/31 01:28:25;;;;;;;21.43;6.20;;;;;;;42.10;36.09;100955.16;4983225;28;20865;-86
2023/03/31 01:31:27;;;;;;;17.37;6.10;;;;;;;41.95;36.29;100933.97;4995759;28;20471;-89
2023/03/31 01:34:06;;;;;;;19.03;6.23;;;;;;;41.95;36.16;100934.75;4988165;28;20437;-88
2023/03/31 01:36:42;;;;;;;19.43;7.50;;;;;;;41.93;36.18;100931.59;4994261;28;20426;-87
2023/03/31 01:39:21;;;;;;;19.30;7.37;;;;;;;41.91;36.13;100909.31;4994449;28;20432;-87
2023/03/31 01:42:16;;;;;;;16.50;6.67;;;;;;;42.09;35.92;100912.69;5006402;28;20455;-90
2023/03/31 01:45:03;;;;;;;17.67;6.90;;;;;;;42.11;36.40;100935.75;5000903;28;20429;-90
2023/03/31 01:47:40;;;;;;;21.63;5.83;;;;;;;42.21;36.07;100920.94;4999824;28;20445;-90
2023/03/31 01:50:35;;;;;;;26.10;6.30;;;;;;;42.04;36.10;100912.88;5013004;28;21018;-87
2023/03/31 01:53:25;;;;;;;17.70;6.17;;;;;;;42.14;36.01;100896.13;4998025;28;20968;-84
2023/03/31 01:56:28;;;;;;;15.93;5.50;;;;;;;42.14;35.88;100864.22;4995320;28;20449;-91
2023/03/31 01:59:11;;;;;;;20.47;6.17;;;;;;;42.12;36.16;100877.38;5001108;28;20428;-90
2023/03/31 02:01:51;;;;;;;23.13;6.13;;;;;;;42.07;36.44;100887.69;4999025;28;20513;-90
2023/03/31 02:04:22;;;;;;;21.00;8.00;;;;;;;42.00;36.06;100879.28;5004946;28;20421;-90
2023/03/31 02:06:57;;;;;;;20.47;6.93;;;;;;;41.74;36.27;100874.84;4994960;28;20436;-87
2023/03/31 02:09:31;;;;;;;21.70;6.40;;;;;;;41.88;36.10;100869.13;4993815;28;20511;-87
2023/03/31 02:11:59;;;;;;;21.90;6.83;;;;;;;42.10;36.34;100878.84;4982158;28;20420;-87
2023/03/31 02:14:31;;;;;;;22.57;7.33;;;;;;;42.00;36.67;100877.34;4994895;28;20425;-88
2023/03/31 02:17:01;;;;;;;19.60;6.87;;;;;;;42.03;36.41;100873.94;5004969;28;20798;-90
2023/03/31 02:19:35;;;;;;;24.37;6.70;;;;;;;41.90;36.50;100877.75;4993818;28;20433;-88
2023/03/31 02:22:03;;;;;;;28.07;6.47;;;;;;;41.69;36.60;100868.78;4993456;28;20428;-88
2023/03/31 02:24:31;;;;;;;27.23;8.43;;;;;;;41.85;36.01;100884.19;5010083;28;20420;-88
2023/03/31 02:27:27;;;;;;;15.63;5.83;;;;;;;41.68;36.37;100858.97;5001301;28;20437;-88
2023/03/31 02:29:56;;;;;;;18.60;8.20;;;;;;;41.85;36.33;100880.66;4992701;28;20453;-88
2023/03/31 02:32:38;;;;;;;19.57;7.10;;;;;;;41.65;36.55;100854.22;4979885;28;20492;-87
2023/03/31 02:35:12;;;;;;;22.63;7.67;;;;;;;41.70;36.70;100892.16;5003280;28;20448;-88
2023/03/31 02:37:41;;;;;;;17.83;7.40;;;;;;;41.87;36.48;100883.88;5012178;28;20455;-87
2023/03/31 02:40:19;;;;;;;25.90;7.83;;;;;;;41.97;36.45;100866.31;5012360;28;20440;-88
2023/03/31 02:42:45;;;;;;;17.70;6.80;;;;;;;41.97;36.16;100877.19;4982107;28;20445;-87
2023/03/31 02:45:41;;;;;;;17.40;6.40;;;;;;;41.84;36.37;100863.53;4992907;28;20433;-86
2023/03/31 02:48:16;;;;;;;18.37;7.63;;;;;;;41.96;36.13;100857.34;4994598;28;20409;-89
2023/03/31 02:51:08;;;;;;;15.03;6.33;;;;;;;41.92;36.59;100856.41;4992909;28;20476;-89
2023/03/31 02:54:08;;;;;;;23.73;7.90;;;;;;;42.02;36.15;100836.13;4993422;28;20928;-90
2023/03/31 02:57:16;;;;;;;24.40;8.50;;;;;;;41.95;36.48;100825.78;4992637;28;20436;-88
2023/03/31 03:00:26;;;;;;;21.07;6.87;;;;;;;41.87;36.44;100840.28;4980630;28;20465;-90
2023/03/31 03:03:29;;;;;;;11.70;5.40;;;;;;;41.85;36.50;100834.34;4956338;28;20449;-88
2023/03/31 03:06:08;;;;;;;19.60;6.80;;;;;;;41.99;36.41;100839.50;5004444;28;20400;-88
2023/03/31 03:09:00;;;;;;;24.03;8.43;;;;;;;41.88;36.64;100833.69;5011334;28;20470;-88
2023/03/31 03:11:32;;;;;;;32.53;8.20;;;;;;;41.81;36.38;100828.78;4973212;28;20489;-87
2023/03/31 03:14:49;;;;;;;25.87;11.00;;;;;;;42.18;36.47;100861.66;4992855;28;20472;-86
2023/03/31 03:17:41;;;;;;;17.70;7.90;;;;;;;42.25;36.40;100856.44;4961487;28;20516;-87
2023/03/31 03:20:09;;;;;;;27.00;10.40;;;;;;;42.31;35.84;100857.03;4981945;28;20462;-86
2023/03/31 03:22:39;;;;;;;33.50;10.77;;;;;;;42.41;35.17;100862.03;4970606;28;20451;-88
2023/03/31 03:25:11;;;;;;;21.67;9.57;;;;;;;42.43;34.89;100840.69;4986994;28;20432;-86
2023/03/31 03:27:38;;;;;;;27.07;8.50;;;;;;;42.21;34.98;100827.47;4991761;28;20516;-92
2023/03/31 03:30:08;;;;;;;34.13;8.43;;;;;;;42.47;34.89;100865.34;4990842;28;20461;-92
2023/03/31 03:32:34;;;;;;;26.40;9.53;;;;;;;42.43;34.08;100859.78;4981764;28;20528;-87
2023/03/31 03:35:00;;;;;;;24.83;8.87;;;;;;;42.48;32.69;100875.13;4992593;28;20953;-86
2023/03/31 03:37:28;;;;;;;15.63;6.90;;;;;;;41.99;32.45;100840.31;4993352;28;20433;-88
2023/03/31 03:39:54;;;;;;;36.00;11.20;;;;;;;42.21;32.78;100879.25;4981510;28;20465;-86
2023/03/31 03:42:20;;;;;;;19.77;9.80;;;;;;;41.98;33.37;100862.44;4983670;28;20781;-85
2023/03/31 03:44:46;;;;;;;31.23;8.23;;;;;;;42.14;34.08;100879.78;4995056;28;20421;-88
2023/03/31 03:47:12;;;;;;;26.37;7.97;;;;;;;38.86;36.02;100909.09;4991796;28;20424;-86
2023/03/31 03:49:38;;;;;;;27.83;9.57;;;;;;;39.53;35.39;100944.13;4982185;28;20481;-87
2023/03/31 03:52:05;;;;;;;24.03;9.90;;;;;;;39.77;34.43;100960.03;4995424;28;20802;-86
2023/03/31 03:54:31;;;;;;;31.50;10.30;;;;;;;39.77;33.97;100946.47;4992112;28;20426;-85
2023/03/31 03:56:57;;;;;;;18.93;8.40;;;;;;;39.33;35.06;100972.66;4995577;28;20486;-88
2023/03/31 03:59:24;;;;;;;20.53;7.53;;;;;;;38.81;36.20;100998.69;4970540;28;20434;-87
2023/03/31 04:01:51;;;;;;;27.53;9.30;;;;;;;37.91;37.47;100993.06;4995134;28;20460;-87
2023/03/31 04:04:19;;;;;;;23.13;7.00;;;;;;;37.59;38.00;101016.44;4973105;28;20520;-87
2023/03/31 04:06:46;;;;;;;32.80;9.30;;;;;;;38.18;37.50;101022.84;5003608;28;20850;-87
2023/03/31 04:09:12;;;;;;;20.80;7.40;;;;;;;37.82;37.39;101024.69;4993462;28;20430;-87
2023/03/31 04:11:41;;;;;;;18.93;6.87;;;;;;;37.26;38.17;100987.78;4983640;28;21021;-87
2023/03/31 04:14:07;;;;;;;17.07;6.33;;;;;;;37.77;37.85;100994.97;5000536;28;20816;-88
2023/03/31 04:16:37;;;;;;;21.10;7.07;;;;;;;38.04;37.52;100975.19;5000238;28;20421;-90
2023/03/31 04:19:12;;;;;;;21.40;7.07;;;;;;;37.79;36.93;100966.47;4987683;28;20488;-91
2023/03/31 04:21:44;;;;;;;25.23;8.03;;;;;;;38.00;36.89;100876.69;4977026;28;20428;-88
2023/03/31 04:24:20;;;;;;;25.47;10.27;;;;;;;38.57;36.17;100853.41;4982009;28;20430;-88
2023/03/31 04:26:49;;;;;;;27.90;10.60;;;;;;;39.21;34.96;100886.41;4993670;28;20429;-89
2023/03/31 04:29:25;;;;;;;32.27;13.00;;;;;;;39.62;34.07;100896.13;4991200;28;20530;-90
2023/03/31 04:31:53;;;;;;;39.20;12.90;;;;;;;39.71;34.15;100894.22;5002342;28;20493;-91
2023/03/31 04:34:21;;;;;;;34.63;10.93;;;;;;;39.75;33.68;100856.38;4983183;28;20440;-91
2023/03/31 04:36:47;;;;;;;28.77;12.20;;;;;;;40.24;33.82;100911.38;4994350;28;20524;-89
2023/03/31 04:39:25;;;;;;;44.80;15.47;;;;;;;40.03;33.19;100882.13;4974722;28;20434;-91
2023/03/31 04:41:55;;;;;;;36.37;12.70;;;;;;;40.24;32.80;100889.63;5002234;28;20977;-86
2023/03/31 04:44:26;;;;;;;26.67;11.73;;;;;;;40.08;31.96;100873.00;4982969;28;20797;-90
2023/03/31 04:47:05;;;;;;;31.90;9.77;;;;;;;39.57;32.66;100836.53;4998980;28;20951;-88
2023/03/31 04:49:44;;;;;;;31.23;11.03;;;;;;;39.48;33.25;100858.25;5001026;28;20487;-88
2023/03/31 04:52:16;;;;;;;29.80;12.30;;;;;;;39.53;33.47;100870.06;5001243;28;20436;-89
2023/03/31 04:54:43;;;;;;;36.73;11.47;;;;;;;39.36;33.24;100849.91;5018260;28;20413;-86
2023/03/31 04:57:13;;;;;;;37.90;13.23;;;;;;;39.59;33.49;100842.44;4971237;28;20428;-87
2023/03/31 04:59:46;;;;;;;29.87;9.50;;;;;;;39.55;32.60;100882.19;5016455;28;20420;-87
2023/03/31 05:02:22;;;;;;;30.77;10.20;;;;;;;39.45;33.11;100896.88;5004796;28;20455;-86
2023/03/31 05:04:56;;;;;;;29.53;9.30;;;;;;;39.37;33.52;100880.56;5015180;28;20510;-88
2023/03/31 05:07:25;;;;;;;35.33;12.10;;;;;;;39.82;33.07;100883.84;4998254;28;20812;-88
2023/03/31 05:09:52;;;;;;;22.43;9.87;;;;;;;39.64;32.42;100849.66;4998304;28;20464;-90
2023/03/31 05:12:24;;;;;;;26.43;8.73;;;;;;;40.04;32.85;100874.78;4997852;28;20428;-89
2023/03/31 05:14:53;;;;;;;23.50;9.80;;;;;;;40.08;32.19;100883.06;4997932;28;20433;-90
2023/03/31 05:17:21;;;;;;;24.07;8.77;;;;;;;39.89;32.21;100883.38;4982443;28;20432;-90
2023/03/31 05:19:48;;;;;;;29.23;11.60;;;;;;;39.75;32.37;100873.47;4998330;28;20482;-89
2023/03/31 05:22:19;;;;;;;35.67;10.23;;;;;;;39.82;32.80;100880.34;5015531;28;20444;-89
2023/03/31 05:24:48;;;;;;;22.03;7.90;;;;;;;40.01;32.52;100878.91;5015939;28;20428;-90
2023/03/31 05:27:24;;;;;;;25.87;11.37;;;;;;;39.90;32.28;100877.66;5015710;28;20424;-89
2023/03/31 05:29:50;;;;;;;20.47;7.73;;;;;;;39.97;32.10;100904.31;5004964;28;20465;-84
2023/03/31 05:32:25;;;;;;;21.83;9.90;;;;;;;40.00;32.41;100901.75;5015961;28;20431;-88
2023/03/31 05:34:56;;;;;;;25.50;10.70;;;;;;;40.03;32.56;100876.69;5007718;28;20420;-88
2023/03/31 05:37:24;;;;;;;20.70;7.70;;;;;;;40.31;31.79;100908.16;4997279;28;20437;-91
2023/03/31 05:39:51;;;;;;;21.00;9.23;;;;;;;40.39;31.59;100896.47;4989283;28;20491;-86
2023/03/31 05:42:18;;;;;;;38.80;11.63;;;;;;;40.41;31.44;100880.66;5004353;28;20432;-87
2023/03/31 05:44:45;;;;;;;33.93;10.57;;;;;;;40.42;31.37;100884.97;4991840;28;20428;-84
2023/03/31 05:47:13;;;;;;;31.00;12.63;;;;;;;40.60;31.84;100905.59;4997967;28;20425;-86
2023/03/31 05:49:40;;;;;;;38.90;12.33;;;;;;;40.73;31.20;100910.03;4981307;28;20476;-89
2023/03/31 05:52:08;;;;;;;31.60;9.30;;;;;;;40.53;31.27;100894.41;4998688;28;20492;-86
2023/03/31 05:54:34;;;;;;;32.70;11.20;;;;;;;40.73;31.38;100918.19;4997887;28;20431;-84
2023/03/31 05:57:00;;;;;;;29.00;12.27;;;;;;;40.54;30.81;100904.16;5023031;28;20446;-85
2023/03/31 05:59:26;;;;;;;33.03;12.83;;;;;;;40.52;30.95;100915.38;5011117;28;20425;-90
2023/03/31 06:01:54;;;;;;;24.63;12.43;;;;;;;40.71;30.72;100912.28;5000706;28;20533;-84
2023/03/31 06:04:20;;;;;;;26.33;11.30;;;;;;;40.56;30.65;100896.47;5004778;28;20429;-86
2023/03/31 06:06:49;;;;;;;44.27;14.30;;;;;;;40.70;30.93;100913.41;4994822;28;20465;-83
2023/03/31 06:09:16;;;;;;;29.73;12.00;;;;;;;40.69;31.17;100900.91;5594979;22;20961;-92
2023/03/31 06:11:42;;;;;;;20.80;11.87;;;;;;;40.78;30.70;100903.63;5008850;28;20450;-88
2023/03/31 06:14:08;;;;;;;32.40;11.50;;;;;;;40.83;30.47;100914.31;5017822;28;20800;-86
2023/03/31 06:16:34;;;;;;;22.53;12.00;;;;;;;40.95;30.72;100922.63;5016421;28;20933;-86
2023/03/31 06:19:00;;;;;;;42.90;15.27;;;;;;;40.89;31.30;100909.50;5035463;28;20415;-88
2023/03/31 06:21:26;;;;;;;32.83;13.50;;;;;;;40.80;31.30;100912.25;5017213;28;20502;-87
2023/03/31 06:23:55;;;;;;;41.13;14.80;;;;;;;40.63;31.83;100909.56;5007237;28;20201;-86
2023/03/31 06:26:21;;;;;;;24.50;12.47;;;;;;;40.71;31.92;100928.59;5036898;28;20435;-88
2023/03/31 06:28:49;;;;;;;31.60;13.77;;;;;;;40.77;32.09;100934.66;5033725;28;20435;-87
2023/03/31 06:31:17;;;;;;;39.30;14.13;;;;;;;40.61;32.48;100939.00;5012645;28;21489;-82
2023/03/31 06:33:44;;;;;;;39.13;14.47;;;;;;;40.33;32.83;100938.53;5012625;28;21028;-81
2023/03/31 06:36:12;;;;;;;34.37;14.90;;;;;;;40.39;33.19;100938.06;5013149;28;20454;-83
2023/03/31 06:38:38;;;;;;;27.40;12.90;;;;;;;40.53;32.91;100954.22;5014612;28;20885;-84
2023/03/31 06:41:06;;;;;;;38.90;13.73;;;;;;;40.49;33.39;100947.81;5013591;28;20481;-86
2023/03/31 06:43:32;;;;;;;22.67;13.07;;;;;;;40.50;33.36;100958.38;5012939;28;20427;-84
2023/03/31 06:45:58;;;;;;;39.67;15.23;;;;;;;40.50;33.43;100954.84;5014042;28;20424;-86
2023/03/31 06:48:25;;;;;;;29.50;14.10;;;;;;;40.50;33.14;100960.28;5008578;28;20428;-84
2023/03/31 06:50:53;;;;;;;36.67;17.83;;;;;;;40.46;33.37;100973.72;5002028;28;20474;-84
2023/03/31 06:53:20;;;;;;;43.73;18.67;;;;;;;40.21;33.81;100937.28;5002461;28;20428;-83
2023/03/31 06:55:47;;;;;;;32.90;16.60;;;;;;;40.46;33.43;100970.19;5000458;28;20451;-85
2023/03/31 06:58:13;;;;;;;29.03;15.73;;;;;;;40.45;34.11;100966.66;4998328;28;20452;-83
2023/03/31 07:00:39;;;;;;;39.87;17.27;;;;;;;40.54;33.88;100972.13;5000673;28;20420;-82
2023/03/31 07:03:07;;;;;;;25.17;14.47;;;;;;;40.49;34.13;100973.09;5009481;28;20485;-83
2023/03/31 07:05:34;;;;;;;44.27;17.73;;;;;;;40.63;34.27;100991.94;5012196;28;20427;-83
2023/03/31 07:08:00;;;;;;;47.43;19.77;;;;;;;40.69;33.40;100981.69;5015489;28;20941;-84
2023/03/31 07:10:28;;;;;;;35.73;15.20;;;;;;;40.73;33.42;101001.69;4995213;28;20511;-85
2023/03/31 07:12:54;;;;;;;38.03;16.30;;;;;;;40.64;33.31;100985.41;4976144;28;20426;-83
2023/03/31 07:15:21;;;;;;;27.00;15.10;;;;;;;40.71;33.12;100996.59;4976450;28;20443;-82
2023/03/31 07:17:49;;;;;;;39.23;18.13;;;;;;;40.78;33.48;100994.16;4982201;28;20837;-82
2023/03/31 07:20:17;;;;;;;31.70;16.23;;;;;;;40.83;33.03;100997.84;4991045;28;20418;-82
2023/03/31 07:22:45;;;;;;;29.20;17.57;;;;;;;40.76;33.08;100999.16;4991093;28;20469;-82
2023/03/31 07:25:12;;;;;;;32.37;20.30;;;;;;;40.84;32.77;100994.00;4989700;28;20429;-83
2023/03/31 07:27:39;;;;;;;47.73;23.80;;;;;;;40.70;33.40;100992.28;4990654;28;21356;-82
2023/03/31 07:30:07;;;;;;;35.50;22.00;;;;;;;40.70;33.27;100997.72;4989256;28;20464;-84
2023/03/31 07:32:44;;;;;;;42.43;22.37;;;;;;;40.61;33.46;100983.31;5010102;28;20420;-79
2023/03/31 07:35:12;;;;;;;36.20;20.13;;;;;;;40.77;33.08;100998.03;4989032;28;20428;-82
2023/03/31 07:37:42;;;;;;;44.23;21.73;;;;;;;40.62;33.54;101001.22;4998942;28;20421;-81
2023/03/31 07:40:14;;;;;;;48.03;22.07;;;;;;;40.55;34.15;101003.63;4992111;28;20429;-86
2023/03/31 07:43:23;;;;;;;42.33;23.07;;;;;;;40.47;34.22;100988.09;4988754;28;20457;-87
2023/03/31 07:46:00;;;;;;;50.43;21.90;;;;;;;40.38;34.38;100982.66;4996860;28;20492;-88
2023/03/31 07:48:45;;;;;;;41.30;23.20;;;;;;;40.59;34.15;100991.00;5002446;28;20428;-87
2023/03/31 07:51:18;;;;;;;36.97;21.90;;;;;;;40.64;33.93;100992.75;4984234;28;20456;-87
2023/03/31 07:53:51;;;;;;;32.33;20.17;;;;;;;40.63;34.44;100988.44;4995260;28;20437;-86
2023/03/31 07:56:23;;;;;;;49.33;20.53;;;;;;;40.62;33.96;100976.75;4992051;28;20492;-85
2023/03/31 07:58:52;;;;;;;40.63;18.50;;;;;;;40.81;33.99;100985.34;4992294;28;20491;-87
2023/03/31 08:01:20;;;;;;;37.03;19.63;;;;;;;40.88;33.58;100989.50;4991495;28;21037;-82
2023/03/31 08:03:47;;;;;;;34.63;16.20;;;;;;;40.76;34.03;100990.16;4984235;28;20442;-86
2023/03/31 08:06:18;;;;;;;35.63;16.13;;;;;;;40.86;33.64;100989.03;4992869;28;20516;-85
2023/03/31 08:08:45;;;;;;;32.83;20.00;;;;;;;40.98;33.42;100986.47;4989025;28;20959;-83
2023/03/31 08:11:10;;;;;;;41.23;21.73;;;;;;;40.96;32.89;100962.31;4991668;28;20488;-83
2023/03/31 08:13:36;;;;;;;38.57;20.23;;;;;;;40.92;33.51;100964.09;4987493;28;20422;-83
2023/03/31 08:16:03;;;;;;;38.97;21.30;;;;;;;41.13;33.13;100964.19;5001272;28;20927;-85
2023/03/31 08:18:29;;;;;;;42.30;19.20;;;;;;;41.01;33.37;100969.50;4990938;28;22136;-83
2023/03/31 08:20:55;;;;;;;40.10;17.70;;;;;;;40.97;33.05;100971.28;4994271;28;20962;-83
2023/03/31 08:23:21;;;;;;;34.07;20.40;;;;;;;40.94;33.24;100974.63;4993482;28;20425;-84
2023/03/31 08:25:47;;;;;;;28.73;19.50;;;;;;;40.98;32.91;100981.03;4994594;28;20439;-85
2023/03/31 08:28:13;;;;;;;45.13;20.33;;;;;;;40.81;33.17;100960.88;4989591;28;20433;-82
2023/03/31 08:30:40;;;;;;;36.77;16.63;;;;;;;41.11;32.49;100990.13;4988956;28;20473;-83
2023/03/31 08:33:06;;;;;;;33.57;19.60;;;;;;;41.16;32.95;100995.38;4981269;28;20421;-83
2023/03/31 08:35:37;;;;;;;45.77;21.47;;;;;;;40.86;32.79;100968.06;4981137;28;20944;-88
2023/03/31 08:38:03;;;;;;;40.90;23.07;;;;;;;41.08;33.64;101002.47;4987209;28;20927;-86
2023/03/31 08:40:31;;;;;;;41.87;22.83;;;;;;;41.25;33.25;101005.13;4986778;28;21006;-85
2023/03/31 08:43:05;;;;;;;34.17;20.10;;;;;;;41.19;33.52;101000.16;4995380;28;20543;-81
2023/03/31 08:45:38;;;;;;;39.83;17.03;;;;;;;41.40;32.65;101003.00;4984365;28;20511;-80
2023/03/31 08:48:26;;;;;;;27.33;15.47;;;;;;;41.50;32.36;101014.34;5000212;28;20430;-82
2023/03/31 08:50:59;;;;;;;38.60;17.07;;;;;;;41.67;32.53;101018.88;4994830;28;20982;-81
2023/03/31 08:53:33;;;;;;;31.10;15.07;;;;;;;41.69;32.21;101026.75;4985632;28;20425;-81
2023/03/31 08:56:03;;;;;;;33.57;13.77;;;;;;;41.74;32.29;101027.38;4995022;28;20425;-81
2023/03/31 08:58:39;;;;;;;31.50;17.03;;;;;;;41.70;31.99;101023.69;4994734;28;20943;-81
2023/03/31 09:01:27;;;;;;;33.57;16.83;;;;;;;41.73;31.62;101036.63;4994976;28;20515;-82
2023/03/31 09:03:54;;;;;;;35.10;17.53;;;;;;;41.76;31.94;101043.41;4991234;28;20449;-82
2023/03/31 09:06:37;;;;;;;32.07;16.13;;;;;;;41.78;31.56;101046.56;4995210;28;20464;-81
2023/03/31 09:09:09;;;;;;;38.23;15.70;;;;;;;41.76;31.38;101041.47;5005679;28;20829;-82
2023/03/31 09:11:41;;;;;;;29.57;13.53;;;;;;;41.81;31.12;101035.84;5003583;28;21046;-80
2023/03/31 09:14:25;;;;;;;41.90;17.23;;;;;;;41.79;31.30;101035.34;5007528;28;20806;-81
2023/03/31 09:17:17;;;;;;;41.30;14.23;;;;;;;41.81;30.81;101021.41;5008155;28;20440;-81
2023/03/31 09:19:59;;;;;;;38.80;18.20;;;;;;;41.72;31.58;101039.69;4996909;28;20431;-83
2023/03/31 09:22:32;;;;;;;42.13;14.73;;;;;;;41.90;31.71;101038.50;5001627;28;20436;-83
2023/03/31 09:25:16;;;;;;;34.93;18.80;;;;;;;41.66;32.23;101032.84;4997359;28;20460;-83
2023/03/31 09:27:43;;;;;;;44.27;18.70;;;;;;;41.63;31.87;101030.78;4997579;28;20463;-82
2023/03/31 09:30:15;;;;;;;36.93;17.30;;;;;;;41.78;31.51;101024.78;4997335;28;20459;-82
2023/03/31 09:32:41;;;;;;;26.17;13.20;;;;;;;41.86;31.53;101027.44;4997006;28;20927;-84
2023/03/31 09:35:24;;;;;;;36.50;13.70;;;;;;;41.94;31.78;101027.75;4996391;28;20428;-83
2023/03/31 09:37:50;;;;;;;42.17;17.90;;;;;;;42.02;31.56;101024.16;4997184;28;20432;-82
2023/03/31 09:40:23;;;;;;;28.97;12.50;;;;;;;41.86;31.08;101043.78;4996546;28;20935;-84
2023/03/31 09:43:16;;;;;;;29.87;12.43;;;;;;;41.88;31.58;101042.69;4996421;28;20432;-82
2023/03/31 09:45:44;;;;;;;32.00;13.90;;;;;;;41.69;32.47;101035.72;4996470;28;20436;-83
2023/03/31 09:48:15;;;;;;;40.17;16.73;;;;;;;41.83;31.61;101043.66;4984315;28;20779;-83
2023/03/31 09:51:04;;;;;;;25.13;13.10;;;;;;;41.98;31.22;101042.28;4996346;28;20539;-83
2023/03/31 09:53:51;;;;;;;37.00;11.93;;;;;;;42.07;31.29;101038.38;4996630;28;20968;-84
2023/03/31 09:56:42;;;;;;;25.90;12.13;;;;;;;42.16;30.99;101041.06;4985408;28;20444;-83
2023/03/31 09:59:16;;;;;;;37.47;12.30;;;;;;;42.02;31.31;101041.31;4997407;28;20409;-83
2023/03/31 10:01:49;;;;;;;40.80;15.00;;;;;;;42.01;30.50;101036.19;4998210;28;20527;-82
2023/03/31 10:04:25;;;;;;;40.03;12.70;;;;;;;42.12;30.63;101042.84;4997164;28;21024;-83
2023/03/31 10:06:53;;;;;;;37.83;14.73;;;;;;;42.20;30.89;101041.22;4997400;28;20452;-82
2023/03/31 10:09:23;;;;;;;28.20;12.77;;;;;;;42.04;30.55;101046.41;4997205;28;20484;-83
2023/03/31 10:12:01;;;;;;;28.37;12.00;;;;;;;42.23;30.21;101049.50;5012976;28;20510;-81
2023/03/31 10:14:33;;;;;;;35.70;13.30;;;;;;;42.18;31.50;101049.75;4997223;28;20427;-82
2023/03/31 10:17:03;;;;;;;37.50;13.27;;;;;;;42.35;31.12;101052.31;4997003;28;20507;-82
2023/03/31 10:19:32;;;;;;;30.67;10.70;;;;;;;42.56;30.29;101048.78;4997030;28;20860;-80
2023/03/31 10:22:02;;;;;;;36.50;13.50;;;;;;;42.65;29.93;101050.31;4996492;28;21004;-82
2023/03/31 10:24:44;;;;;;;28.80;11.70;;;;;;;42.56;29.90;101056.97;4996929;28;20477;-82
2023/03/31 10:27:22;;;;;;;30.77;12.27;;;;;;;42.70;29.46;101056.72;4981260;28;20957;-83
2023/03/31 10:29:52;;;;;;;23.83;10.73;;;;;;;42.83;29.71;101061.09;4995715;28;20471;-82
2023/03/31 10:32:41;;;;;;;25.37;10.00;;;;;;;42.77;29.93;101055.03;4996453;28;20895;-82
2023/03/31 10:35:26;;;;;;;30.80;12.83;;;;;;;42.85;29.92;101062.38;4996649;28;20432;-84
2023/03/31 10:37:56;;;;;;;29.10;12.30;;;;;;;42.80;29.71;101053.59;4996695;28;20432;-82
2023/03/31 10:40:28;;;;;;;26.20;11.40;;;;;;;42.68;29.60;101057.06;5012642;28;20455;-82
2023/03/31 10:43:02;;;;;;;42.33;13.13;;;;;;;42.78;29.68;101061.28;4996518;28;20435;-82
2023/03/31 10:45:35;;;;;;;36.93;12.77;;;;;;;42.77;29.79;101049.59;4996507;28;20950;-82
2023/03/31 10:48:01;;;;;;;28.93;11.10;;;;;;;42.79;29.71;101052.00;5012742;28;20463;-83
2023/03/31 10:50:33;;;;;;;23.73;8.17;;;;;;;42.91;29.68;101049.31;4995920;28;20542;-82
2023/03/31 10:53:11;;;;;;;29.20;10.23;;;;;;;42.98;29.12;101037.84;4996234;28;20177;-82
2023/03/31 10:56:00;;;;;;;23.43;11.37;;;;;;;42.93;29.50;101034.19;5012455;28;20969;-82
2023/03/31 10:58:35;;;;;;;29.83;10.13;;;;;;;42.97;29.65;101037.03;4996081;28;20992;-82
2023/03/31 11:01:27;;;;;;;33.07;9.43;;;;;;;42.95;29.60;101030.31;4995964;28;20809;-82
2023/03/31 11:04:17;;;;;;;23.40;8.80;;;;;;;42.71;30.34;101041.94;4995636;28;21033;-82
2023/03/31 11:06:48;;;;;;;23.57;11.20;;;;;;;42.73;30.14;101036.97;4996111;28;20435;-82
2023/03/31 11:09:36;;;;;;;25.23;11.10;;;;;;;42.79;30.70;101036.41;4995763;28;20448;-82
2023/03/31 11:12:36;;;;;;;34.37;12.17;;;;;;;42.93;29.89;101041.56;4995814;28;20448;-82
2023/03/31 11:15:08;;;;;;;30.97;11.80;;;;;;;42.99;30.13;101047.66;4979015;28;20957;-82
2023/03/31 11:18:03;;;;;;;34.30;10.00;;;;;;;43.06;30.36;101037.75;4996160;28;20459;-81
2023/03/31 11:20:50;;;;;;;25.70;10.50;;;;;;;43.12;30.18;101035.63;4995765;28;20448;-82
2023/03/31 11:23:42;;;;;;;32.20;13.23;;;;;;;43.03;30.19;101035.72;4995899;28;20506;-82
2023/03/31 11:26:45;;;;;;;31.43;12.33;;;;;;;43.09;30.14;101034.34;4995589;28;20448;-81
2023/03/31 11:29:34;;;;;;;27.30;12.87;;;;;;;43.26;29.69;101032.56;5003438;28;20413;-82
2023/03/31 11:32:42;;;;;;;25.47;10.17;;;;;;;43.14;30.39;101025.16;4995943;28;20452;-81
2023/03/31 11:35:59;;;;;;;40.87;11.73;;;;;;;43.10;30.07;101014.13;4983245;28;20439;-82
2023/03/31 11:38:43;;;;;;;27.77;10.50;;;;;;;43.13;30.15;101015.38;4970287;28;20439;-82
2023/03/31 11:41:15;;;;;;;40.67;11.37;;;;;;;43.23;29.91;101012.19;4995424;28;20452;-83
2023/03/31 11:44:01;;;;;;;31.00;9.77;;;;;;;43.31;30.26;101008.56;4995658;28;20444;-82